Time;durP1;ratioP1;P1;durP2;ratioP2;P2;SDS_P1;SDS_P2;PMS_P1;PMS_P2;Temp;Humidity;BMP_temperature;BMP_pressure;BME280_temperature;BME280_humidity;BME280_pressure;Samples;Min_cycle;Max_cycle;Signal;HPM_P1;HPM_P2
2021/05/09 00:00:34;;;;;;;22.33;11.13;;;;;;;;;;5073054;28;20020;-68
2021/05/09 00:03:00;;;;;;;22.38;10.43;;;;;;;;;;5073021;28;20032;-69
2021/05/09 00:05:26;;;;;;;22.55;9.65;;;;;;;;;;5072849;28;20024;-68
2021/05/09 00:07:52;;;;;;;22.33;10.18;;;;;;;;;;5072757;28;20024;-68
2021/05/09 00:10:19;;;;;;;24.48;10.32;;;;;;;;;;5072156;28;20023;-68
2021/05/09 00:12:44;;;;;;;17.40;8.70;;;;;;;;;;5073311;28;20021;-68
2021/05/09 00:15:11;;;;;;;19.38;8.55;;;;;;;;;;5077729;28;20029;-68
2021/05/09 00:17:38;;;;;;;16.48;7.82;;;;;;;;;;5072830;28;20111;-68
2021/05/09 00:20:05;;;;;;;24.15;8.90;;;;;;;;;;5072711;28;20148;-68
2021/05/09 00:22:31;;;;;;;17.17;8.50;;;;;;;;;;5072511;28;20013;-68
2021/05/09 00:24:57;;;;;;;19.23;9.13;;;;;;;;;;5072697;28;20024;-68
2021/05/09 00:27:23;;;;;;;21.23;8.55;;;;;;;;;;5071285;28;20119;-68
2021/05/09 00:29:50;;;;;;;17.60;7.88;;;;;;;;;;5072747;28;20085;-68
2021/05/09 00:32:16;;;;;;;23.00;8.43;;;;;;;;;;5072550;28;20023;-68
2021/05/09 00:34:42;;;;;;;20.55;8.68;;;;;;;;;;5072337;28;20048;-68
2021/05/09 00:37:08;;;;;;;19.65;8.73;;;;;;;;;;5071754;28;20016;-68
2021/05/09 00:39:34;;;;;;;21.60;8.73;;;;;;;;;;5072484;28;20498;-68
2021/05/09 00:42:01;;;;;;;18.65;9.15;;;;;;;;;;5071796;28;20023;-68
2021/05/09 00:44:27;;;;;;;19.20;8.80;;;;;;;;;;5072657;28;20021;-68
2021/05/09 00:46:53;;;;;;;19.73;8.70;;;;;;;;;;5072521;28;20062;-68
2021/05/09 00:49:19;;;;;;;17.83;8.10;;;;;;;;;;5072289;28;20035;-68
2021/05/09 00:51:47;;;;;;;19.80;8.48;;;;;;;;;;5072310;28;20497;-68
2021/05/09 00:54:15;;;;;;;14.60;7.60;;;;;;;;;;5072446;28;20023;-68
2021/05/09 00:56:40;;;;;;;20.80;9.60;;;;;;;;;;5072433;28;20548;-68
2021/05/09 00:59:06;;;;;;;21.70;8.80;;;;;;;;;;5072075;28;20104;-68
2021/05/09 01:01:33;;;;;;;20.40;8.73;;;;;;;;;;5071006;28;20538;-68
2021/05/09 01:04:00;;;;;;;21.70;9.93;;;;;;;;;;5072234;28;20027;-68
2021/05/09 01:06:26;;;;;;;20.70;7.82;;;;;;;;;;5072288;28;20048;-68
2021/05/09 01:08:53;;;;;;;15.95;6.90;;;;;;;;;;5072235;28;20458;-68
2021/05/09 01:11:18;;;;;;;20.02;7.13;;;;;;;;;;5071357;28;20047;-68
2021/05/09 01:13:45;;;;;;;17.88;7.43;;;;;;;;;;5072197;28;20019;-68
2021/05/09 01:16:11;;;;;;;17.33;6.93;;;;;;;;;;5072100;28;20064;-68
2021/05/09 01:18:38;;;;;;;17.15;7.63;;;;;;;;;;5072265;28;20028;-68
2021/05/09 01:21:04;;;;;;;17.60;8.25;;;;;;;;;;5072016;28;20012;-68
2021/05/09 01:23:30;;;;;;;20.70;7.78;;;;;;;;;;5071973;28;20017;-67
2021/05/09 01:25:56;;;;;;;22.35;8.82;;;;;;;;;;5071985;28;20028;-68
2021/05/09 01:28:22;;;;;;;20.50;8.82;;;;;;;;;;5072052;28;20021;-68
2021/05/09 01:30:47;;;;;;;19.25;8.32;;;;;;;;;;5072016;28;20665;-68
2021/05/09 01:33:13;;;;;;;16.30;7.75;;;;;;;;;;5071608;28;20147;-69
2021/05/09 01:35:38;;;;;;;23.98;8.13;;;;;;;;;;5071922;28;20119;-70
2021/05/09 01:38:04;;;;;;;21.80;7.78;;;;;;;;;;5071857;28;20082;-69
2021/05/09 01:40:31;;;;;;;21.83;7.47;;;;;;;;;;5071410;28;20020;-69
2021/05/09 01:42:58;;;;;;;18.00;8.20;;;;;;;;;;5071859;28;20444;-69
2021/05/09 01:45:23;;;;;;;15.70;7.53;;;;;;;;;;5071842;28;20017;-69
2021/05/09 01:47:49;;;;;;;19.20;7.88;;;;;;;;;;5071790;28;20066;-69
2021/05/09 01:50:16;;;;;;;22.08;7.63;;;;;;;;;;5075262;28;20044;-69
2021/05/09 01:52:43;;;;;;;17.70;7.30;;;;;;;;;;5075577;28;20023;-69
2021/05/09 01:55:11;;;;;;;18.40;6.85;;;;;;;;;;5075468;28;20394;-69
2021/05/09 01:57:36;;;;;;;21.55;7.20;;;;;;;;;;5075457;28;20463;-69
2021/05/09 02:00:06;;;;;;;18.85;7.43;;;;;;;;;;5075338;28;20048;-69
2021/05/09 02:02:32;;;;;;;18.05;7.07;;;;;;;;;;5075420;28;20082;-69
2021/05/09 02:04:58;;;;;;;15.90;7.35;;;;;;;;;;5075330;28;20103;-69
2021/05/09 02:07:23;;;;;;;18.42;7.30;;;;;;;;;;5075223;28;20143;-69
2021/05/09 02:09:49;;;;;;;16.30;7.35;;;;;;;;;;5074653;28;20494;-69
2021/05/09 02:12:15;;;;;;;20.77;7.05;;;;;;;;;;5075215;28;20024;-69
2021/05/09 02:14:41;;;;;;;17.20;7.00;;;;;;;;;;5075199;28;20381;-69
2021/05/09 02:17:07;;;;;;;16.05;7.00;;;;;;;;;;5075023;28;20028;-69
2021/05/09 02:19:34;;;;;;;13.30;7.55;;;;;;;;;;5074812;28;20107;-69
2021/05/09 02:21:59;;;;;;;21.00;7.78;;;;;;;;;;5077679;28;20024;-69
2021/05/09 02:24:25;;;;;;;14.02;6.45;;;;;;;;;;5077699;28;20032;-69
2021/05/09 02:26:52;;;;;;;18.73;7.32;;;;;;;;;;5074881;28;20009;-69
2021/05/09 02:29:18;;;;;;;16.58;6.72;;;;;;;;;;5074818;28;20034;-68
2021/05/09 02:31:43;;;;;;;14.75;6.47;;;;;;;;;;5074865;28;20066;-69
2021/05/09 02:34:09;;;;;;;14.60;6.85;;;;;;;;;;5074281;28;20048;-69
2021/05/09 02:36:35;;;;;;;17.70;6.70;;;;;;;;;;5074739;28;20040;-69
2021/05/09 02:39:01;;;;;;;16.40;6.50;;;;;;;;;;5074622;28;20025;-69
2021/05/09 02:41:27;;;;;;;16.08;7.07;;;;;;;;;;5073978;28;20017;-68
2021/05/09 02:43:53;;;;;;;18.27;6.65;;;;;;;;;;5074539;28;20012;-69
2021/05/09 02:46:19;;;;;;;14.82;7.20;;;;;;;;;;5074627;28;20397;-69
2021/05/09 02:48:45;;;;;;;18.55;7.07;;;;;;;;;;5074709;28;20009;-69
2021/05/09 02:51:11;;;;;;;13.77;7.22;;;;;;;;;;5074466;28;20425;-69
2021/05/09 02:53:36;;;;;;;20.55;7.20;;;;;;;;;;5074503;28;20067;-69
2021/05/09 02:56:04;;;;;;;20.73;7.93;;;;;;;;;;5073150;28;20068;-69
2021/05/09 02:58:31;;;;;;;17.38;6.80;;;;;;;;;;5074426;28;20483;-69
2021/05/09 03:00:57;;;;;;;21.33;7.95;;;;;;;;;;5073720;28;20023;-69
2021/05/09 03:03:23;;;;;;;19.08;7.70;;;;;;;;;;5073882;28;20025;-69
2021/05/09 03:05:49;;;;;;;21.27;7.35;;;;;;;;;;5072982;28;20010;-69
2021/05/09 03:08:15;;;;;;;14.20;7.25;;;;;;;;;;5074131;28;20020;-69
2021/05/09 03:10:41;;;;;;;18.67;7.70;;;;;;;;;;5073552;28;20032;-69
2021/05/09 03:13:07;;;;;;;19.48;6.78;;;;;;;;;;5072770;28;20477;-69
2021/05/09 03:15:33;;;;;;;22.88;8.30;;;;;;;;;;5073711;28;20382;-69
2021/05/09 03:18:00;;;;;;;19.33;7.80;;;;;;;;;;5073672;28;20027;-69
2021/05/09 03:20:26;;;;;;;18.67;7.95;;;;;;;;;;5074003;28;20382;-69
2021/05/09 03:22:52;;;;;;;25.80;9.65;;;;;;;;;;5073873;28;20428;-69
2021/05/09 03:25:18;;;;;;;21.73;8.45;;;;;;;;;;5073473;28;20608;-69
2021/05/09 03:27:43;;;;;;;19.77;8.10;;;;;;;;;;5072387;28;20108;-69
2021/05/09 03:30:10;;;;;;;17.15;7.60;;;;;;;;;;5072327;28;20091;-69
2021/05/09 03:32:36;;;;;;;14.32;7.13;;;;;;;;;;5073381;28;20362;-69
2021/05/09 03:35:02;;;;;;;20.45;7.47;;;;;;;;;;5073499;28;20032;-69
2021/05/09 03:37:28;;;;;;;20.60;8.80;;;;;;;;;;5072156;28;20397;-69
2021/05/09 03:39:53;;;;;;;17.48;8.10;;;;;;;;;;5072881;28;20092;-69
2021/05/09 03:42:20;;;;;;;16.13;7.32;;;;;;;;;;5073461;28;20509;-69
2021/05/09 03:44:46;;;;;;;15.38;7.05;;;;;;;;;;5073385;28;20017;-69
2021/05/09 03:47:13;;;;;;;16.42;7.13;;;;;;;;;;5072928;28;20066;-70
2021/05/09 03:49:39;;;;;;;22.98;7.80;;;;;;;;;;5072061;28;20035;-69
2021/05/09 03:52:04;;;;;;;18.42;7.28;;;;;;;;;;5073177;28;20024;-69
2021/05/09 03:54:31;;;;;;;18.35;7.18;;;;;;;;;;5073218;28;20477;-69
2021/05/09 03:56:57;;;;;;;20.15;8.05;;;;;;;;;;5073272;28;20103;-69
2021/05/09 03:59:23;;;;;;;15.73;6.03;;;;;;;;;;5072934;28;20020;-69
2021/05/09 04:01:48;;;;;;;17.33;6.50;;;;;;;;;;5072966;28;20012;-69
2021/05/09 04:04:15;;;;;;;15.50;6.72;;;;;;;;;;5072920;28;20104;-69
2021/05/09 04:06:41;;;;;;;14.68;6.15;;;;;;;;;;5071767;28;20020;-69
2021/05/09 04:09:08;;;;;;;17.95;6.80;;;;;;;;;;5072921;28;20021;-69
2021/05/09 04:11:34;;;;;;;13.70;6.22;;;;;;;;;;5071773;28;20016;-69
2021/05/09 04:13:59;;;;;;;16.52;6.63;;;;;;;;;;5071207;28;20443;-69
2021/05/09 04:16:25;;;;;;;15.85;6.90;;;;;;;;;;5072643;28;20106;-69
2021/05/09 04:18:52;;;;;;;17.73;7.28;;;;;;;;;;5072745;28;20104;-69
2021/05/09 04:21:18;;;;;;;19.58;6.95;;;;;;;;;;5072669;28;20032;-69
2021/05/09 04:23:44;;;;;;;18.58;6.65;;;;;;;;;;5072798;28;20103;-70
2021/05/09 04:26:09;;;;;;;15.52;6.97;;;;;;;;;;5072514;28;20411;-69
2021/05/09 04:28:35;;;;;;;17.65;6.63;;;;;;;;;;5071430;28;20081;-69
2021/05/09 04:31:01;;;;;;;17.52;6.47;;;;;;;;;;5078327;28;20013;-70
2021/05/09 04:33:28;;;;;;;21.58;6.97;;;;;;;;;;5072123;28;20055;-69
2021/05/09 04:35:54;;;;;;;20.95;6.88;;;;;;;;;;5072531;28;20031;-69
2021/05/09 04:38:20;;;;;;;22.73;7.78;;;;;;;;;;5072555;28;20021;-69
2021/05/09 04:40:47;;;;;;;15.93;6.35;;;;;;;;;;5069898;28;20021;-69
2021/05/09 04:43:15;;;;;;;17.40;6.75;;;;;;;;;;5072103;28;20451;-69
2021/05/09 04:45:46;;;;;;;18.95;8.52;;;;;;;;;;5072607;28;20020;-70
2021/05/09 04:48:12;;;;;;;18.02;7.95;;;;;;;;;;5072478;28;20024;-70
2021/05/09 04:50:37;;;;;;;17.33;7.88;;;;;;;;;;5072584;28;20063;-69
2021/05/09 04:53:03;;;;;;;17.92;8.18;;;;;;;;;;5072394;28;20052;-70
2021/05/09 04:55:29;;;;;;;16.42;7.22;;;;;;;;;;5070976;28;20078;-69
2021/05/09 04:57:54;;;;;;;19.52;6.28;;;;;;;;;;5072478;28;20107;-70
2021/05/09 05:00:20;;;;;;;19.77;8.70;;;;;;;;;;5072263;28;20469;-70
2021/05/09 05:02:47;;;;;;;20.48;8.48;;;;;;;;;;5072432;28;20005;-70
2021/05/09 05:05:13;;;;;;;19.20;7.93;;;;;;;;;;5072069;28;20369;-69
2021/05/09 05:07:39;;;;;;;18.33;6.40;;;;;;;;;;5071118;28;20016;-70
2021/05/09 05:10:06;;;;;;;16.38;6.75;;;;;;;;;;5071537;28;20035;-70
2021/05/09 05:12:31;;;;;;;18.02;6.55;;;;;;;;;;5072308;28;20005;-70
2021/05/09 05:14:57;;;;;;;16.50;6.47;;;;;;;;;;5071879;28;20029;-70
2021/05/09 05:17:23;;;;;;;12.90;6.00;;;;;;;;;;5071996;28;21071;-70
2021/05/09 05:19:48;;;;;;;19.73;6.80;;;;;;;;;;5072203;28;20008;-70
2021/05/09 05:22:14;;;;;;;16.77;6.75;;;;;;;;;;5072164;28;20378;-69
2021/05/09 05:24:41;;;;;;;14.05;5.72;;;;;;;;;;5074934;28;20009;-70
2021/05/09 05:27:08;;;;;;;13.85;5.80;;;;;;;;;;5075969;28;20027;-70
2021/05/09 05:29:35;;;;;;;15.68;6.20;;;;;;;;;;5057886;28;20062;-70
2021/05/09 05:32:00;;;;;;;16.17;6.25;;;;;;;;;;5075918;28;20040;-70
2021/05/09 05:34:26;;;;;;;12.10;5.45;;;;;;;;;;5075466;28;20249;-70
2021/05/09 05:36:53;;;;;;;17.60;5.85;;;;;;;;;;5074519;28;20416;-70
2021/05/09 05:39:19;;;;;;;15.07;5.70;;;;;;;;;;5075363;28;20016;-69
2021/05/09 05:41:44;;;;;;;18.70;7.03;;;;;;;;;;5075180;28;20095;-70
2021/05/09 05:44:10;;;;;;;15.05;5.93;;;;;;;;;;5075701;28;20050;-70
2021/05/09 05:46:36;;;;;;;16.00;6.07;;;;;;;;;;5075623;28;20080;-70
2021/05/09 05:49:02;;;;;;;13.40;5.90;;;;;;;;;;5075568;28;20058;-70
2021/05/09 05:51:28;;;;;;;15.38;6.28;;;;;;;;;;5074234;28;20059;-70
2021/05/09 05:53:54;;;;;;;17.20;7.60;;;;;;;;;;5075468;28;20024;-70
2021/05/09 05:56:21;;;;;;;15.50;7.07;;;;;;;;;;5075528;28;20064;-70
2021/05/09 05:58:47;;;;;;;14.75;6.47;;;;;;;;;;5074141;28;20024;-70
2021/05/09 06:01:13;;;;;;;18.70;7.47;;;;;;;;;;5075084;28;20469;-69
2021/05/09 06:03:38;;;;;;;15.68;7.28;;;;;;;;;;5075366;28;20103;-70
2021/05/09 06:06:04;;;;;;;16.05;6.57;;;;;;;;;;5075085;28;20206;-70
2021/05/09 06:08:30;;;;;;;17.67;6.88;;;;;;;;;;5075283;28;20020;-70
2021/05/09 06:10:56;;;;;;;16.92;7.00;;;;;;;;;;5073418;28;20013;-71
2021/05/09 06:13:22;;;;;;;18.00;6.57;;;;;;;;;;5075082;28;20019;-71
2021/05/09 06:15:48;;;;;;;16.10;7.57;;;;;;;;;;5074921;28;20472;-70
2021/05/09 06:18:14;;;;;;;16.17;7.28;;;;;;;;;;5075094;28;20012;-70
2021/05/09 06:20:41;;;;;;;18.67;6.75;;;;;;;;;;5075301;28;20453;-70
2021/05/09 06:23:08;;;;;;;19.58;7.13;;;;;;;;;;5074917;28;20020;-70
2021/05/09 06:25:35;;;;;;;18.27;7.43;;;;;;;;;;5074809;28;20012;-70
2021/05/09 06:28:01;;;;;;;14.82;6.43;;;;;;;;;;5074393;28;20016;-70
2021/05/09 06:30:28;;;;;;;13.50;5.97;;;;;;;;;;5074721;28;20157;-70
2021/05/09 06:32:54;;;;;;;22.55;7.15;;;;;;;;;;5074694;28;20119;-71
2021/05/09 06:35:21;;;;;;;16.13;6.95;;;;;;;;;;5073625;28;20024;-70
2021/05/09 06:37:51;;;;;;;17.27;7.15;;;;;;;;;;5077032;28;20556;-71
2021/05/09 06:40:17;;;;;;;16.80;7.47;;;;;;;;;;5074261;28;20028;-71
2021/05/09 06:42:43;;;;;;;21.27;7.22;;;;;;;;;;5074644;28;20040;-71
2021/05/09 06:45:15;;;;;;;17.60;6.93;;;;;;;;;;5074544;28;20052;-71
2021/05/09 06:47:41;;;;;;;19.58;6.82;;;;;;;;;;5074394;28;20012;-71
2021/05/09 06:50:08;;;;;;;18.45;7.18;;;;;;;;;;5074148;28;20481;-70
2021/05/09 06:52:35;;;;;;;23.38;7.30;;;;;;;;;;5074598;28;20024;-70
2021/05/09 06:55:04;;;;;;;19.10;6.68;;;;;;;;;;5074084;28;20082;-71
2021/05/09 06:57:30;;;;;;;16.63;6.22;;;;;;;;;;5072860;28;20035;-70
2021/05/09 06:59:57;;;;;;;16.67;6.80;;;;;;;;;;5074247;28;20388;-70
2021/05/09 07:02:22;;;;;;;17.70;6.85;;;;;;;;;;5074262;28;20368;-71
2021/05/09 07:04:48;;;;;;;18.80;7.50;;;;;;;;;;5072929;28;20016;-70
2021/05/09 07:07:14;;;;;;;19.42;7.00;;;;;;;;;;5073964;28;20020;-71
2021/05/09 07:09:40;;;;;;;21.35;6.53;;;;;;;;;;5074292;28;20267;-71
2021/05/09 07:12:07;;;;;;;15.75;5.60;;;;;;;;;;5073252;28;20016;-71
2021/05/09 07:14:33;;;;;;;20.10;6.28;;;;;;;;;;5073956;28;20070;-70
2021/05/09 07:17:00;;;;;;;16.50;6.30;;;;;;;;;;5074018;28;20048;-70
2021/05/09 07:19:25;;;;;;;19.35;6.57;;;;;;;;;;5073845;28;20104;-70
2021/05/09 07:21:56;;;;;;;17.60;6.30;;;;;;;;;;5073950;28;20108;-70
2021/05/09 07:24:22;;;;;;;21.73;6.35;;;;;;;;;;5072518;28;20017;-70
2021/05/09 07:26:48;;;;;;;19.55;7.57;;;;;;;;;;5073624;28;20380;-70
2021/05/09 07:29:14;;;;;;;18.02;6.00;;;;;;;;;;5073423;28;20373;-70
2021/05/09 07:31:41;;;;;;;21.23;6.30;;;;;;;;;;5073632;28;20021;-70
2021/05/09 07:34:07;;;;;;;17.52;5.00;;;;;;;;;;5073329;28;20097;-70
2021/05/09 07:36:34;;;;;;;15.40;5.07;;;;;;;;;;5073428;28;20481;-70
2021/05/09 07:39:00;;;;;;;16.20;6.10;;;;;;;;;;5073348;28;20507;-71
2021/05/09 07:41:25;;;;;;;15.70;4.95;;;;;;;;;;5072542;28;20024;-71
2021/05/09 07:43:51;;;;;;;17.42;5.35;;;;;;;;;;5073499;28;20043;-70
2021/05/09 07:46:17;;;;;;;14.95;5.20;;;;;;;;;;5073266;28;20091;-71
2021/05/09 07:48:43;;;;;;;13.75;5.18;;;;;;;;;;5073301;28;20504;-71
2021/05/09 07:51:10;;;;;;;12.82;4.93;;;;;;;;;;5073135;28;20020;-71
2021/05/09 07:53:37;;;;;;;16.70;5.57;;;;;;;;;;5072308;28;20017;-71
2021/05/09 07:56:03;;;;;;;17.73;4.97;;;;;;;;;;5072820;28;20109;-71
2021/05/09 07:58:29;;;;;;;12.18;5.40;;;;;;;;;;5073214;28;20489;-70
2021/05/09 08:00:55;;;;;;;13.98;5.78;;;;;;;;;;5073166;28;20020;-71
2021/05/09 08:03:22;;;;;;;10.45;5.43;;;;;;;;;;5072772;28;20023;-71
2021/05/09 08:05:48;;;;;;;14.38;5.30;;;;;;;;;;5071749;28;20051;-71
2021/05/09 08:08:14;;;;;;;12.27;4.55;;;;;;;;;;5072767;28;20016;-71
2021/05/09 08:10:41;;;;;;;15.07;5.20;;;;;;;;;;5072306;28;20358;-71
2021/05/09 08:13:12;;;;;;;16.55;5.93;;;;;;;;;;5071625;28;20088;-71
2021/05/09 08:15:39;;;;;;;16.30;4.68;;;;;;;;;;5072830;28;20024;-71
2021/05/09 08:18:05;;;;;;;13.10;5.22;;;;;;;;;;5072761;28;20423;-71
2021/05/09 08:20:31;;;;;;;12.18;5.00;;;;;;;;;;5072819;28;20043;-71
2021/05/09 08:22:57;;;;;;;13.45;4.60;;;;;;;;;;5072678;28;20377;-70
2021/05/09 08:25:23;;;;;;;14.32;4.97;;;;;;;;;;5072487;28;20027;-71
2021/05/09 08:27:50;;;;;;;14.55;4.15;;;;;;;;;;5072686;28;20042;-71
2021/05/09 08:30:21;;;;;;;12.07;4.22;;;;;;;;;;5071543;28;20087;-71
2021/05/09 08:32:47;;;;;;;14.85;4.68;;;;;;;;;;5072544;28;20044;-71
2021/05/09 08:35:13;;;;;;;11.77;4.47;;;;;;;;;;5072193;28;20031;-70
2021/05/09 08:37:39;;;;;;;13.27;5.05;;;;;;;;;;5072604;28;20008;-71
2021/05/09 08:40:07;;;;;;;12.30;4.85;;;;;;;;;;5071861;28;20410;-71
2021/05/09 08:42:33;;;;;;;13.38;4.50;;;;;;;;;;5072670;28;20016;-72
2021/05/09 08:45:00;;;;;;;12.70;4.43;;;;;;;;;;5073271;28;20442;-71
2021/05/09 08:47:40;;;;;;;15.95;4.57;;;;;;;;;;5073369;28;20107;-71
2021/05/09 08:50:09;;;;;;;13.30;4.38;;;;;;;;;;5072392;28;20062;-71
2021/05/09 08:52:36;;;;;;;16.30;4.75;;;;;;;;;;5072646;28;20063;-71
2021/05/09 08:55:07;;;;;;;19.13;4.53;;;;;;;;;;5072279;28;20107;-71
2021/05/09 08:57:33;;;;;;;15.95;5.05;;;;;;;;;;5072174;28;20058;-72
2021/05/09 08:59:59;;;;;;;13.98;4.15;;;;;;;;;;5071792;28;20358;-71
2021/05/09 09:02:26;;;;;;;14.02;4.68;;;;;;;;;;5072478;28;20028;-71
2021/05/09 09:04:53;;;;;;;18.83;5.28;;;;;;;;;;5072441;28;20016;-71
2021/05/09 09:07:20;;;;;;;12.77;4.38;;;;;;;;;;5071758;28;20017;-71
2021/05/09 09:09:46;;;;;;;18.75;5.63;;;;;;;;;;5072454;28;20422;-72
2021/05/09 09:12:13;;;;;;;12.88;4.88;;;;;;;;;;5071519;28;20019;-72
2021/05/09 09:14:59;;;;;;;11.57;3.88;;;;;;;;;;5072212;28;20009;-72
2021/05/09 09:17:25;;;;;;;14.15;3.97;;;;;;;;;;5070886;28;20028;-71
2021/05/09 09:20:21;;;;;;;12.77;3.33;;;;;;;;;;5072113;28;20540;-69
2021/05/09 09:22:55;;;;;;;12.45;3.67;;;;;;;;;;5072177;28;20025;-71
2021/05/09 09:25:23;;;;;;;13.65;3.97;;;;;;;;;;5071865;28;20153;-71
2021/05/09 09:27:50;;;;;;;11.47;3.70;;;;;;;;;;5072055;28;20027;-71
2021/05/09 09:30:17;;;;;;;13.65;4.00;;;;;;;;;;5071918;28;20280;-71
2021/05/09 09:32:51;;;;;;;10.77;3.80;;;;;;;;;;5070661;28;20032;-71
2021/05/09 09:35:27;;;;;;;12.40;4.10;;;;;;;;;;5071672;28;20031;-71
2021/05/09 09:37:53;;;;;;;15.25;4.90;;;;;;;;;;5070628;28;20373;-71
2021/05/09 09:40:19;;;;;;;15.13;4.50;;;;;;;;;;5070112;28;20033;-72
2021/05/09 09:42:46;;;;;;;11.48;3.67;;;;;;;;;;5071940;28;20082;-71
2021/05/09 09:45:14;;;;;;;16.92;4.72;;;;;;;;;;5070353;28;20017;-71
2021/05/09 09:47:47;;;;;;;13.15;4.70;;;;;;;;;;5071935;28;20013;-72
2021/05/09 09:50:32;;;;;;;18.95;6.75;;;;;;;;;;5071762;28;20024;-71
2021/05/09 09:52:57;;;;;;;14.77;5.80;;;;;;;;;;5071949;28;20027;-71
2021/05/09 09:55:23;;;;;;;19.88;6.68;;;;;;;;;;5071576;28;20111;-71
2021/05/09 09:58:01;;;;;;;11.90;4.45;;;;;;;;;;5071980;28;20423;-71
2021/05/09 10:00:26;;;;;;;18.92;4.93;;;;;;;;;;5071109;28;20103;-72
2021/05/09 10:02:52;;;;;;;13.10;5.03;;;;;;;;;;5077536;28;20120;-70
2021/05/09 10:05:18;;;;;;;14.55;4.68;;;;;;;;;;5070778;28;20075;-70
2021/05/09 10:07:43;;;;;;;18.27;5.70;;;;;;;;;;5071524;28;20418;-71
2021/05/09 10:10:09;;;;;;;15.10;5.05;;;;;;;;;;5074830;28;20008;-71
2021/05/09 10:12:35;;;;;;;14.15;6.05;;;;;;;;;;5095136;28;20016;-70
2021/05/09 10:15:01;;;;;;;20.67;5.03;;;;;;;;;;5094050;28;20496;-70
2021/05/09 10:17:28;;;;;;;16.70;5.45;;;;;;;;;;5094786;28;20149;-69
2021/05/09 10:19:53;;;;;;;15.15;5.03;;;;;;;;;;5094506;28;20020;-70
2021/05/09 10:22:32;;;;;;;13.55;5.43;;;;;;;;;;5094519;28;20035;-71
2021/05/09 10:24:58;;;;;;;14.02;4.40;;;;;;;;;;5094698;28;20118;-71
2021/05/09 10:27:37;;;;;;;18.27;5.05;;;;;;;;;;5094362;28;20491;-71
2021/05/09 10:30:04;;;;;;;18.13;4.40;;;;;;;;;;5094849;28;20469;-75
